createdAt,value
2023-04-23T00:05:05.255Z,8.96
2023-04-23T00:10:10.448Z,8.98
2023-04-23T00:15:15.498Z,8.95
2023-04-23T00:20:21.841Z,8.99
2023-04-23T00:25:25.536Z,8.88
2023-04-23T00:30:29.515Z,8.92
2023-04-23T00:35:34.644Z,8.93
2023-04-23T00:40:38.696Z,8.91
2023-04-23T00:45:42.925Z,8.92
2023-04-23T00:50:48.366Z,8.88
2023-04-23T00:55:52.795Z,8.96
2023-04-23T01:00:57.846Z,9.04
2023-04-23T01:06:03.691Z,9.05
2023-04-23T01:11:07.524Z,9.10
2023-04-23T01:16:11.452Z,9.03
2023-04-23T01:21:19.190Z,9.08
2023-04-23T01:26:26.792Z,9.11
2023-04-23T01:31:31.623Z,9.08
2023-04-23T01:36:36.730Z,9.13
2023-04-23T01:41:42.536Z,9.08
2023-04-23T01:46:46.737Z,9.12
2023-04-23T01:51:51.160Z,9.16
2023-04-23T01:56:57.332Z,9.11
2023-04-23T02:02:01.124Z,9.07
2023-04-23T02:07:05.065Z,9.01
2023-04-23T02:12:10.151Z,9.04
2023-04-23T02:17:13.895Z,8.98
2023-04-23T02:22:17.729Z,9.04
2023-04-23T02:27:23.261Z,9.07
2023-04-23T02:32:28.030Z,9.03
2023-04-23T02:37:31.784Z,9.00
2023-04-23T02:42:37.112Z,9.08
2023-04-23T02:47:41.580Z,9.10
2023-04-23T02:52:45.535Z,9.09
2023-04-23T02:57:50.815Z,9.13
2023-04-23T03:02:54.814Z,9.08
2023-04-23T03:07:59.289Z,9.09
2023-04-23T03:13:04.908Z,9.14
2023-04-23T03:18:08.622Z,9.10
2023-04-23T03:23:12.806Z,9.17
2023-04-23T03:28:18.000Z,9.22
2023-04-23T03:33:21.832Z,9.28
2023-04-23T03:38:25.957Z,9.33
2023-04-23T03:43:31.779Z,9.41
2023-04-23T03:48:36.815Z,9.45
2023-04-23T03:53:41.383Z,9.41
2023-04-23T03:58:49.316Z,9.30
2023-04-23T04:03:53.889Z,9.23
2023-04-23T04:08:59.591Z,9.14
2023-04-23T04:14:05.041Z,9.04
2023-04-23T04:19:09.198Z,9.06
2023-04-23T04:24:12.890Z,8.96
2023-04-23T04:29:17.947Z,9.01
2023-04-23T04:34:21.695Z,8.93
2023-04-23T04:39:25.786Z,8.89
2023-04-23T04:44:31.277Z,8.88
2023-04-23T04:49:35.098Z,8.88
2023-04-23T04:54:38.822Z,8.94
2023-04-23T04:59:44.127Z,8.86
2023-04-23T05:04:48.011Z,8.86
2023-04-23T05:09:51.688Z,8.85
2023-04-23T05:14:56.765Z,8.83
2023-04-23T05:20:00.462Z,8.80
2023-04-23T05:25:04.396Z,8.83
2023-04-23T05:30:11.348Z,8.88
2023-04-23T05:35:15.036Z,8.90
2023-04-23T05:40:18.872Z,8.94
2023-04-23T05:45:24.168Z,9.01
2023-04-23T05:50:27.866Z,9.07
2023-04-23T05:55:31.574Z,9.11
2023-04-23T06:00:37.104Z,9.16
2023-04-23T06:05:43.312Z,9.25
2023-04-23T06:10:47.621Z,9.31
2023-04-23T06:15:52.782Z,9.43
2023-04-23T06:20:57.351Z,9.51
2023-04-23T06:26:01.848Z,9.60
2023-04-23T06:31:08.035Z,9.75
2023-04-23T06:36:11.890Z,9.88
2023-04-23T06:41:15.928Z,10.02
2023-04-23T06:46:21.112Z,10.08
2023-04-23T06:51:26.879Z,10.25
2023-04-23T06:56:30.557Z,10.38
2023-04-23T07:01:35.898Z,10.50
2023-04-23T07:06:39.669Z,10.61
2023-04-23T07:11:43.424Z,10.73
2023-04-23T07:16:48.498Z,10.92
2023-04-23T07:21:53.394Z,11.03
2023-04-23T07:26:57.162Z,11.29
2023-04-23T07:32:02.317Z,11.50
2023-04-23T07:37:06.214Z,11.62
2023-04-23T07:42:10.004Z,11.78
2023-04-23T07:47:15.044Z,11.97
2023-04-23T07:52:18.809Z,12.12
2023-04-23T07:57:22.584Z,12.27
2023-04-23T08:02:28.662Z,12.52
2023-04-23T08:07:33.264Z,12.56
2023-04-23T08:12:37.356Z,12.71
2023-04-23T08:17:43.084Z,12.88
2023-04-23T08:22:47.223Z,13.03
2023-04-23T08:27:51.219Z,13.39
2023-04-23T08:32:56.879Z,13.72
2023-04-23T08:38:01.373Z,13.69
2023-04-23T08:43:11.725Z,13.97
2023-04-23T08:48:17.198Z,13.99
2023-04-23T08:53:23.698Z,14.57
2023-04-23T08:58:28.926Z,14.48
2023-04-23T09:03:34.997Z,14.74
2023-04-23T09:08:39.621Z,14.73
2023-04-23T09:13:43.458Z,15.02
2023-04-23T09:18:49.831Z,15.52
2023-04-23T09:23:54.029Z,15.73
2023-04-23T09:28:57.923Z,15.96
2023-04-23T09:34:03.359Z,16.28
2023-04-23T09:39:13.682Z,16.57
2023-04-23T09:44:20.075Z,16.87
2023-04-23T09:49:25.122Z,16.81
2023-04-23T09:54:29.002Z,16.72
2023-04-23T09:59:47.031Z,16.62
2023-04-23T10:05:03.426Z,16.83
2023-04-23T10:10:11.156Z,16.93
2023-04-23T10:15:15.880Z,17.19
2023-04-23T10:20:23.150Z,17.64
2023-04-23T10:25:27.256Z,17.54
2023-04-23T10:30:31.685Z,17.36
2023-04-23T10:35:37.118Z,17.41
2023-04-23T10:40:44.729Z,17.77
2023-04-23T10:45:50.448Z,18.12
2023-04-23T10:51:14.465Z,18.05
2023-04-23T10:56:23.858Z,17.38
2023-04-23T11:01:30.148Z,17.68
2023-04-23T11:06:58.026Z,17.36
2023-04-23T11:12:03.610Z,17.43
2023-04-23T11:17:07.704Z,17.26
2023-04-23T11:22:17.336Z,17.52
2023-04-23T11:27:21.452Z,17.06
2023-04-23T11:32:25.485Z,17.25
2023-04-23T11:37:30.773Z,17.49
2023-04-23T11:42:42.630Z,17.86
2023-04-23T11:47:48.379Z,18.61
2023-04-23T11:52:53.930Z,19.74
2023-04-23T11:57:58.789Z,20.11
2023-04-23T12:03:05.047Z,19.54
2023-04-23T12:08:11.468Z,19.04
2023-04-23T12:13:16.437Z,18.52
2023-04-23T12:18:20.584Z,18.35
2023-04-23T12:23:29.181Z,18.24
2023-04-23T12:28:33.157Z,17.98
2023-04-23T12:33:36.888Z,17.82
2023-04-23T12:38:42.473Z,17.68
2023-04-23T12:43:48.727Z,17.78
2023-04-23T12:48:52.614Z,17.57
2023-04-23T12:53:57.664Z,17.61
2023-04-23T12:59:01.954Z,17.94
2023-04-23T13:04:05.716Z,18.23
2023-04-23T13:09:11.522Z,18.60
2023-04-23T13:14:15.261Z,18.61
2023-04-23T13:19:18.948Z,18.64
2023-04-23T13:24:24.004Z,18.71
2023-04-23T13:29:28.209Z,18.48
2023-04-23T13:34:31.925Z,18.58
2023-04-23T13:39:39.958Z,18.08
2023-04-23T13:44:45.140Z,17.94
2023-04-23T13:49:48.971Z,17.77
2023-04-23T13:54:54.678Z,17.03
2023-04-23T13:59:58.518Z,16.44
2023-04-23T14:05:03.774Z,16.21
2023-04-23T14:10:09.866Z,15.29
2023-04-23T14:15:14.510Z,14.86
2023-04-23T14:20:20.016Z,14.60
2023-04-23T14:25:35.462Z,14.46
2023-04-23T14:30:41.917Z,14.08
2023-04-23T14:35:45.636Z,14.08
2023-04-23T14:40:51.344Z,14.18
2023-04-23T14:45:55.195Z,14.11
2023-04-23T14:50:59.332Z,13.81
2023-04-23T14:56:04.398Z,13.76
2023-04-23T15:01:08.366Z,13.79
2023-04-23T15:06:12.120Z,13.70
2023-04-23T15:15:16.875Z,14.35
2023-04-23T15:20:21.513Z,14.35
2023-04-23T15:25:25.578Z,13.67
2023-04-23T15:30:30.963Z,13.79
2023-04-23T15:35:34.626Z,13.82
2023-04-23T15:40:42.717Z,13.67
2023-04-23T15:45:48.573Z,13.43
2023-04-23T15:50:52.390Z,13.26
2023-04-23T15:55:56.040Z,13.09
2023-04-23T16:01:01.895Z,13.05
2023-04-23T16:06:06.045Z,13.09
2023-04-23T16:11:09.782Z,13.17
2023-04-23T16:16:14.824Z,13.09
2023-04-23T16:21:18.528Z,13.16
2023-04-23T16:26:22.448Z,13.20
2023-04-23T16:31:27.876Z,13.35
2023-04-23T16:36:32.584Z,13.20
2023-04-23T16:41:36.634Z,13.05
2023-04-23T16:46:42.256Z,13.46
2023-04-23T16:51:46.287Z,13.24
2023-04-23T17:02:29.889Z,13.30
2023-04-23T17:07:33.691Z,13.46
2023-04-23T17:12:37.382Z,13.60
2023-04-23T17:17:42.485Z,13.60
2023-04-23T17:22:46.280Z,13.52
2023-04-23T17:27:50.019Z,13.34
2023-04-23T17:32:55.182Z,13.19
2023-04-23T17:37:58.913Z,13.28
2023-04-23T17:43:02.718Z,13.04
2023-04-23T17:48:08.206Z,12.95
2023-04-23T17:53:12.109Z,13.03
2023-04-23T17:58:15.876Z,13.10
2023-04-23T18:03:21.933Z,12.90
2023-04-23T18:08:25.959Z,12.82
2023-04-23T18:13:29.862Z,12.72
2023-04-23T18:18:35.004Z,12.73
2023-04-23T18:23:39.670Z,12.81
2023-04-23T18:28:43.629Z,12.85
2023-04-23T18:33:55.357Z,12.75
2023-04-23T18:38:59.651Z,12.68
2023-04-23T18:44:03.368Z,12.68
2023-04-23T18:49:38.416Z,12.42
2023-04-23T18:54:44.202Z,12.07
2023-04-23T18:59:47.924Z,11.80
2023-04-23T19:04:53.141Z,11.53
2023-04-23T19:09:56.965Z,11.30
2023-04-23T19:20:26.156Z,11.34
2023-04-23T19:25:29.948Z,11.27
2023-04-23T19:30:33.988Z,11.31
2023-04-23T19:35:40.415Z,11.18
2023-04-23T19:40:44.375Z,11.28
2023-04-23T19:45:48.182Z,11.15
2023-04-23T19:50:53.357Z,11.30
2023-04-23T19:55:57.140Z,11.08
2023-04-23T20:01:01.046Z,10.96
2023-04-23T20:06:06.536Z,11.01
2023-04-23T20:11:10.430Z,11.08
2023-04-23T20:16:14.224Z,10.93
2023-04-23T20:21:19.318Z,10.87
2023-04-23T20:26:23.045Z,10.80
2023-04-23T20:31:26.913Z,10.60
2023-04-23T20:36:33.308Z,10.54
2023-04-23T20:41:37.049Z,10.20
2023-04-23T20:46:41.393Z,9.89
2023-04-23T20:51:46.730Z,9.98
2023-04-23T20:56:54.038Z,9.87
2023-04-23T21:01:58.277Z,9.93
2023-04-23T21:07:03.453Z,9.82
2023-04-23T21:12:07.428Z,9.71
2023-04-23T21:17:11.458Z,9.69
2023-04-23T21:22:16.831Z,9.76
2023-04-23T21:27:21.797Z,9.66
2023-04-23T21:32:26.229Z,9.61
2023-04-23T21:37:33.320Z,9.69
2023-04-23T21:42:37.088Z,9.57
2023-04-23T21:47:42.430Z,9.62
2023-04-23T21:52:47.579Z,9.53
2023-04-23T21:57:51.490Z,9.35
2023-04-23T22:02:56.018Z,9.51
2023-04-23T22:08:01.483Z,9.48
2023-04-23T22:13:05.400Z,9.45
2023-04-23T22:18:09.343Z,9.37
2023-04-23T22:23:14.457Z,9.46
2023-04-23T22:28:18.341Z,9.35
2023-04-23T22:33:22.050Z,9.53
2023-04-23T22:38:27.262Z,9.44
2023-04-23T22:43:30.994Z,9.20
2023-04-23T22:48:34.766Z,9.49
2023-04-23T22:53:39.799Z,9.38
2023-04-23T22:58:43.532Z,9.62
2023-04-23T23:03:47.338Z,9.53
2023-04-23T23:08:52.524Z,9.48
2023-04-23T23:13:56.398Z,9.49
2023-04-23T23:19:00.165Z,9.57
2023-04-23T23:24:05.989Z,9.56
2023-04-23T23:29:09.738Z,9.50
2023-04-23T23:34:13.492Z,9.58
2023-04-23T23:39:20.037Z,9.47
2023-04-23T23:44:23.739Z,9.48
2023-04-23T23:49:27.478Z,9.50
2023-04-23T23:54:32.763Z,9.55
2023-04-23T23:59:36.559Z,9.51
